Terminal Aerodrome Forecast
Issued by NWS Sterling, VA

Current Version | Previous Version | Text Only | Print | Product List | Glossary Off
Versions: 1 2 3 4 5 6 7 8 9 10 11 12 13 14 15 16 17 18 19 20 21 22 23 24 25 26 27 28 29 30

000
FTUS41 KLWX 231100
TAFIAD
TAF
KIAD 231120Z 2312/2418 33004KT 1SM -RADZ BR OVC003
     FM231500 30004KT 2SM -DZ BR OVC008
     FM231700 20005KT 3SM -DZ BR OVC008
     FM232300 VRB03KT 3SM BR OVC008
     FM240200 VRB03KT 3SM -RA BR OVC003
     FM241200 10005KT 1SM RA OVC008=

USA.gov is the U.S. government's official web portal to all federal, state and local government web resources and services.